createdAt,value
2019-02-20T00:00:29.310Z,4.80
2019-02-20T00:02:57.687Z,4.80
2019-02-20T00:05:26.892Z,4.80
2019-02-20T00:07:55.457Z,4.80
2019-02-20T00:10:24.014Z,4.80
2019-02-20T00:12:54.210Z,4.70
2019-02-20T00:15:22.738Z,4.70
2019-02-20T00:17:51.323Z,4.70
2019-02-20T00:20:20.141Z,4.70
2019-02-20T00:22:56.186Z,4.60
2019-02-20T00:25:25.094Z,4.50
2019-02-20T00:27:53.636Z,4.50
2019-02-20T00:30:22.195Z,4.40
2019-02-20T00:32:51.034Z,4.30
2019-02-20T00:35:19.929Z,4.20
2019-02-20T00:37:48.815Z,4.20
2019-02-20T00:40:17.360Z,4.10
2019-02-20T00:42:45.923Z,4.10
2019-02-20T00:45:19.122Z,4.10
2019-02-20T00:48:01.463Z,4.10
2019-02-20T00:50:31.648Z,4.00
2019-02-20T00:53:04.769Z,4.00
2019-02-20T00:55:33.338Z,3.90
2019-02-20T00:58:02.158Z,3.90
2019-02-20T01:00:30.743Z,4.00
2019-02-20T01:02:59.347Z,4.00
2019-02-20T01:05:27.887Z,4.10
2019-02-20T01:07:56.458Z,4.00
2019-02-20T01:10:25.073Z,4.00
2019-02-20T01:12:53.642Z,4.00
2019-02-20T01:15:22.206Z,3.90
2019-02-20T01:17:50.808Z,3.80
2019-02-20T01:20:19.702Z,3.80
2019-02-20T01:22:48.316Z,3.70
2019-02-20T01:25:16.932Z,3.70
2019-02-20T01:27:45.759Z,3.70
2019-02-20T01:30:14.375Z,3.60
2019-02-20T01:32:43.231Z,3.60
2019-02-20T01:35:14.632Z,3.50
2019-02-20T01:37:43.468Z,3.50
2019-02-20T01:40:12.159Z,3.50
2019-02-20T01:42:41.046Z,3.40
2019-02-20T01:45:09.658Z,3.40
2019-02-20T01:47:38.199Z,3.40
2019-02-20T01:50:07.621Z,3.30
2019-02-20T01:52:37.528Z,3.30
2019-02-20T01:55:08.006Z,3.40
2019-02-20T01:57:36.839Z,3.40
2019-02-20T02:00:08.683Z,3.40
2019-02-20T02:02:37.491Z,3.50
2019-02-20T02:05:14.923Z,3.50
2019-02-20T02:07:37.316Z,3.50
2019-02-20T02:10:08.098Z,3.50
2019-02-20T02:12:36.640Z,3.50
2019-02-20T02:15:07.667Z,3.50
2019-02-20T02:17:36.138Z,3.50
2019-02-20T02:20:07.121Z,3.50
2019-02-20T02:22:35.762Z,3.50
2019-02-20T02:25:05.891Z,3.60
2019-02-20T02:27:34.781Z,3.60
2019-02-20T02:30:04.430Z,3.60
2019-02-20T02:32:32.966Z,3.60
2019-02-20T02:35:01.463Z,3.60
2019-02-20T02:37:30.009Z,3.60
2019-02-20T02:39:58.546Z,3.50
2019-02-20T02:42:27.122Z,3.50
2019-02-20T02:44:55.662Z,3.60
2019-02-20T02:47:43.494Z,3.60
2019-02-20T02:50:12.038Z,3.60
2019-02-20T02:52:41.497Z,3.60
2019-02-20T02:55:10.207Z,3.60
2019-02-20T02:57:38.759Z,3.70
2019-02-20T03:00:10.146Z,3.60
2019-02-20T03:02:38.689Z,3.70
2019-02-20T03:05:08.364Z,3.60
2019-02-20T03:07:36.931Z,3.60
2019-02-20T03:10:07.413Z,3.60
2019-02-20T03:12:35.959Z,3.60
2019-02-20T03:15:07.367Z,3.60
2019-02-20T03:17:35.971Z,3.60
2019-02-20T03:20:07.063Z,3.70
2019-02-20T03:22:35.714Z,3.70
2019-02-20T03:25:04.698Z,3.80
2019-02-20T03:27:33.550Z,3.80
2019-02-20T03:30:02.094Z,3.80
2019-02-20T03:32:30.644Z,3.90
2019-02-20T03:34:59.258Z,3.90
2019-02-20T03:37:27.819Z,3.90
2019-02-20T03:39:56.371Z,3.90
2019-02-20T03:42:24.917Z,3.90
2019-02-20T03:44:53.490Z,4.00
2019-02-20T03:47:22.808Z,4.00
2019-02-20T03:49:51.379Z,4.00
2019-02-20T03:52:19.926Z,4.00
2019-02-20T03:54:48.532Z,4.00
2019-02-20T03:57:17.240Z,4.00
2019-02-20T03:59:45.795Z,4.00
2019-02-20T04:02:14.335Z,4.00
2019-02-20T04:04:42.895Z,4.00
2019-02-20T04:07:11.776Z,4.00
2019-02-20T04:09:40.355Z,4.00
2019-02-20T04:12:10.277Z,4.00
2019-02-20T04:14:39.153Z,4.00
2019-02-20T04:17:07.731Z,4.10
2019-02-20T04:19:36.635Z,4.10
2019-02-20T04:22:05.182Z,4.10
2019-02-20T04:24:33.744Z,4.10
2019-02-20T04:27:02.283Z,4.10
2019-02-20T04:29:31.171Z,4.10
2019-02-20T04:31:59.742Z,4.10
2019-02-20T04:34:28.312Z,4.00
2019-02-20T04:36:56.831Z,4.00
2019-02-20T04:39:25.405Z,4.00
2019-02-20T04:41:53.934Z,4.00
2019-02-20T04:44:22.547Z,4.00
2019-02-20T04:46:51.176Z,3.90
2019-02-20T04:49:19.725Z,3.90
2019-02-20T04:51:48.272Z,3.80
2019-02-20T04:54:16.930Z,3.80
2019-02-20T04:56:45.466Z,3.80
2019-02-20T04:59:14.888Z,3.80
2019-02-20T05:01:43.443Z,3.80
2019-02-20T05:04:11.999Z,3.70
2019-02-20T05:06:40.825Z,3.70
2019-02-20T05:09:09.415Z,3.70
2019-02-20T05:11:38.300Z,3.70
2019-02-20T05:14:06.873Z,3.70
2019-02-20T05:16:35.677Z,3.70
2019-02-20T05:19:04.275Z,3.70
2019-02-20T05:21:32.856Z,3.70
2019-02-20T05:24:01.736Z,3.70
2019-02-20T05:26:30.378Z,3.70
2019-02-20T05:28:58.926Z,3.70
2019-02-20T05:31:46.829Z,3.60
2019-02-20T05:34:15.384Z,3.60
2019-02-20T05:36:44.213Z,3.60
2019-02-20T05:39:13.279Z,3.60
2019-02-20T05:41:41.758Z,3.60
2019-02-20T05:44:10.296Z,3.60
2019-02-20T05:46:38.871Z,3.60
2019-02-20T05:49:07.412Z,3.60
2019-02-20T05:51:37.178Z,3.50
2019-02-20T05:54:05.751Z,3.50
2019-02-20T05:56:34.370Z,3.50
2019-02-20T05:59:06.024Z,3.50
2019-02-20T06:01:34.568Z,3.50
2019-02-20T06:04:03.108Z,3.50
2019-02-20T06:06:31.677Z,3.50
2019-02-20T06:09:00.339Z,3.40
2019-02-20T06:11:28.884Z,3.40
2019-02-20T06:13:58.673Z,3.40
2019-02-20T06:16:27.214Z,3.40
2019-02-20T06:18:55.774Z,3.30
2019-02-20T06:21:24.424Z,3.30
2019-02-20T06:23:52.955Z,3.30
2019-02-20T06:26:21.607Z,3.30
2019-02-20T06:28:50.231Z,3.30
2019-02-20T06:31:18.846Z,3.30
2019-02-20T06:33:47.462Z,3.30
2019-02-20T06:36:16.033Z,3.30
2019-02-20T06:38:44.584Z,3.30
2019-02-20T06:41:13.485Z,3.30
2019-02-20T06:43:42.047Z,3.40
2019-02-20T06:46:10.592Z,3.40
2019-02-20T06:48:39.442Z,3.40
2019-02-20T06:51:08.255Z,3.50
2019-02-20T06:53:36.822Z,3.50
2019-02-20T06:56:05.697Z,3.50
2019-02-20T06:58:34.255Z,3.60
2019-02-20T07:01:03.072Z,3.60
2019-02-20T07:03:31.651Z,3.60
2019-02-20T07:06:34.437Z,3.70
2019-02-20T07:09:17.822Z,3.70
2019-02-20T07:12:23.821Z,3.70
2019-02-20T07:15:25.101Z,3.70
2019-02-20T07:17:59.402Z,3.80
2019-02-20T07:20:49.133Z,3.80
2019-02-20T07:23:38.559Z,3.80
2019-02-20T07:26:35.257Z,3.80
2019-02-20T07:29:27.597Z,3.90
2019-02-20T07:31:56.163Z,4.00
2019-02-20T07:34:24.983Z,4.00
2019-02-20T07:36:53.478Z,4.10
2019-02-20T07:39:21.965Z,4.10
2019-02-20T07:41:50.512Z,4.10
2019-02-20T07:44:19.089Z,4.10
2019-02-20T07:46:47.902Z,4.20
2019-02-20T07:49:16.447Z,4.30
2019-02-20T07:51:45.020Z,4.30
2019-02-20T07:54:13.628Z,4.30
2019-02-20T07:56:42.194Z,4.50
2019-02-20T07:59:10.728Z,4.60
2019-02-20T08:01:39.309Z,4.60
2019-02-20T08:04:07.855Z,4.70
2019-02-20T08:06:36.427Z,4.70
2019-02-20T08:09:05.846Z,4.80
2019-02-20T08:11:34.426Z,4.80
2019-02-20T08:14:02.984Z,4.90
2019-02-20T08:16:31.504Z,5.10
2019-02-20T08:19:00.079Z,5.30
2019-02-20T08:21:28.619Z,5.40
2019-02-20T08:24:00.006Z,5.50
2019-02-20T08:26:28.499Z,5.70
2019-02-20T08:28:57.388Z,5.90
2019-02-20T08:31:25.956Z,6.10
2019-02-20T08:33:54.507Z,6.20
2019-02-20T08:36:23.340Z,6.70
2019-02-20T08:38:51.914Z,7.30
2019-02-20T08:41:20.450Z,7.40
2019-02-20T08:43:48.999Z,7.80
2019-02-20T08:46:17.569Z,8.30
2019-02-20T08:48:46.114Z,9.00
2019-02-20T08:51:14.744Z,10.00
2019-02-20T08:53:43.315Z,11.00
2019-02-20T08:56:11.854Z,11.10
2019-02-20T08:58:40.432Z,11.10
2019-02-20T09:01:09.034Z,10.70
2019-02-20T09:03:37.505Z,10.10
2019-02-20T09:06:06.647Z,9.60
2019-02-20T09:08:35.121Z,9.30
2019-02-20T09:11:03.731Z,9.70
2019-02-20T09:13:32.374Z,10.00
2019-02-20T09:16:01.001Z,10.20
2019-02-20T09:18:29.508Z,10.30
2019-02-20T09:20:58.054Z,10.70
2019-02-20T09:23:26.724Z,11.20
2019-02-20T09:25:55.263Z,11.10
2019-02-20T09:28:23.806Z,10.90
2019-02-20T09:30:52.376Z,10.60
2019-02-20T09:33:20.950Z,10.30
2019-02-20T09:35:49.556Z,10.10
2019-02-20T09:38:18.418Z,10.20
2019-02-20T09:40:47.307Z,10.30
2019-02-20T09:43:16.203Z,10.80
2019-02-20T09:45:44.771Z,10.80
2019-02-20T09:48:13.386Z,11.40
2019-02-20T09:50:41.931Z,11.30
2019-02-20T09:53:10.832Z,10.90
2019-02-20T09:55:39.601Z,10.30
2019-02-20T09:58:08.519Z,9.60
2019-02-20T10:00:37.061Z,9.40
2019-02-20T10:03:05.978Z,9.40
2019-02-20T10:05:34.592Z,9.60
2019-02-20T10:08:04.561Z,9.80
2019-02-20T10:10:33.223Z,10.10
2019-02-20T10:13:01.835Z,10.30
2019-02-20T10:15:30.370Z,10.10
2019-02-20T10:17:58.967Z,9.80
2019-02-20T10:20:27.800Z,9.50
2019-02-20T10:22:56.689Z,9.20
2019-02-20T10:25:25.680Z,9.10
2019-02-20T10:27:54.294Z,9.20
2019-02-20T10:30:22.857Z,9.10
2019-02-20T10:32:51.399Z,9.50
2019-02-20T10:35:19.976Z,9.80
2019-02-20T10:37:48.798Z,10.00
2019-02-20T10:40:17.419Z,9.90
2019-02-20T10:42:46.271Z,10.00
2019-02-20T10:45:15.166Z,10.20
2019-02-20T10:47:43.741Z,10.30
2019-02-20T10:50:33.140Z,10.30
2019-02-20T10:53:01.685Z,10.00
2019-02-20T10:55:30.210Z,9.70
2019-02-20T10:57:58.716Z,9.50
2019-02-20T11:00:30.152Z,9.30
2019-02-20T11:03:18.059Z,9.50
2019-02-20T11:05:46.604Z,9.50
2019-02-20T11:08:16.311Z,9.60
2019-02-20T11:10:44.891Z,9.90
2019-02-20T11:13:13.440Z,9.90
2019-02-20T11:15:42.007Z,9.80
2019-02-20T11:18:10.625Z,9.80
2019-02-20T11:20:39.235Z,9.80
2019-02-20T11:23:07.912Z,9.80
2019-02-20T11:25:36.459Z,9.90
2019-02-20T11:28:05.298Z,9.90
2019-02-20T11:30:33.946Z,9.90
2019-02-20T11:33:03.430Z,9.80
2019-02-20T11:35:32.113Z,9.60
2019-02-20T11:38:00.698Z,9.30
2019-02-20T11:40:29.240Z,9.20
2019-02-20T11:42:58.131Z,9.30
2019-02-20T11:45:26.775Z,9.40
2019-02-20T11:47:55.325Z,9.50
2019-02-20T11:50:23.946Z,9.60
2019-02-20T11:52:52.706Z,9.60
2019-02-20T11:55:21.242Z,9.30
2019-02-20T11:57:49.815Z,9.20
2019-02-20T12:00:40.019Z,9.10
2019-02-20T12:03:28.011Z,9.20
2019-02-20T12:05:55.766Z,9.40
2019-02-20T12:08:24.387Z,9.30
2019-02-20T12:10:52.950Z,9.50
2019-02-20T12:13:21.568Z,9.50
2019-02-20T12:15:50.227Z,9.40
2019-02-20T12:18:18.987Z,9.40
2019-02-20T12:20:47.663Z,9.60
2019-02-20T12:23:16.278Z,9.70
2019-02-20T12:25:45.086Z,9.90
2019-02-20T12:28:13.701Z,9.90
2019-02-20T12:30:42.347Z,9.90
2019-02-20T12:33:10.882Z,10.00
2019-02-20T12:35:39.579Z,10.10
2019-02-20T12:38:08.156Z,10.10
2019-02-20T12:40:36.701Z,10.10
2019-02-20T12:43:05.244Z,10.00
2019-02-20T12:45:33.882Z,9.90
2019-02-20T12:48:02.572Z,9.90
2019-02-20T12:50:31.203Z,9.90
2019-02-20T12:53:00.114Z,9.90
2019-02-20T12:55:29.052Z,9.90
2019-02-20T12:57:57.599Z,10.00
2019-02-20T13:00:26.415Z,10.00
2019-02-20T13:02:54.994Z,10.00
2019-02-20T13:05:23.613Z,10.10
2019-02-20T13:07:52.226Z,10.30
2019-02-20T13:10:20.869Z,10.20
2019-02-20T13:12:49.487Z,10.30
2019-02-20T13:15:19.541Z,10.50
2019-02-20T13:17:48.136Z,10.90
2019-02-20T13:20:16.982Z,11.20
2019-02-20T13:22:45.877Z,11.10
2019-02-20T13:25:14.756Z,11.10
2019-02-20T13:27:43.330Z,11.10
2019-02-20T13:30:14.284Z,11.10
2019-02-20T13:32:42.896Z,11.10
2019-02-20T13:35:11.583Z,11.10
2019-02-20T13:37:40.209Z,11.00
2019-02-20T13:40:10.797Z,11.00
2019-02-20T13:42:39.755Z,11.10
2019-02-20T13:45:09.282Z,11.10
2019-02-20T13:47:37.901Z,11.10
2019-02-20T13:50:11.726Z,11.20
2019-02-20T13:52:39.927Z,11.30
2019-02-20T13:55:08.671Z,11.20
2019-02-20T13:57:37.249Z,11.20
2019-02-20T14:00:13.434Z,11.10
2019-02-20T14:02:42.548Z,11.00
2019-02-20T14:05:11.231Z,11.00
2019-02-20T14:07:40.177Z,10.90
2019-02-20T14:10:12.891Z,10.90
2019-02-20T14:12:41.447Z,10.90
2019-02-20T14:15:12.167Z,10.90
2019-02-20T14:17:40.714Z,10.90
2019-02-20T14:20:12.161Z,10.90
2019-02-20T14:22:41.194Z,10.90
2019-02-20T14:25:11.266Z,11.00
2019-02-20T14:27:39.833Z,11.00
2019-02-20T14:30:11.086Z,10.80
2019-02-20T14:32:39.632Z,10.80
2019-02-20T14:35:10.425Z,10.80
2019-02-20T14:37:39.458Z,10.80
2019-02-20T14:40:09.330Z,10.80
2019-02-20T14:42:38.198Z,10.70
2019-02-20T14:45:30.603Z,10.60
2019-02-20T14:47:59.658Z,10.50
2019-02-20T14:50:47.570Z,10.40
2019-02-20T14:53:16.110Z,10.30
2019-02-20T14:55:44.940Z,10.30
2019-02-20T14:58:13.510Z,10.10
2019-02-20T15:00:42.626Z,10.10
2019-02-20T15:03:11.519Z,10.10
2019-02-20T15:05:40.403Z,10.10
2019-02-20T15:08:09.289Z,10.20
2019-02-20T15:10:38.078Z,10.20
2019-02-20T15:13:06.967Z,10.20
2019-02-20T15:15:35.507Z,10.30
2019-02-20T15:18:04.154Z,10.20
2019-02-20T15:20:33.027Z,10.30
2019-02-20T15:23:02.597Z,10.20
2019-02-20T15:25:31.166Z,10.20
2019-02-20T15:27:59.812Z,10.20
2019-02-20T15:30:28.358Z,10.10
2019-02-20T15:32:57.571Z,10.10
2019-02-20T15:35:26.197Z,10.10
2019-02-20T15:37:55.209Z,10.00
2019-02-20T15:40:23.792Z,9.90
2019-02-20T15:42:52.715Z,9.90
2019-02-20T15:45:21.288Z,9.80
2019-02-20T15:47:49.826Z,9.90
2019-02-20T15:50:19.115Z,9.80
2019-02-20T15:52:48.070Z,9.80
2019-02-20T15:55:16.688Z,9.70
2019-02-20T15:57:45.294Z,9.70
2019-02-20T16:00:18.636Z,9.70
2019-02-20T16:02:47.257Z,9.60
2019-02-20T16:05:16.208Z,9.50
2019-02-20T16:07:45.095Z,9.50
2019-02-20T16:10:13.775Z,9.40
2019-02-20T16:12:43.136Z,9.30
2019-02-20T16:15:14.424Z,9.30
2019-02-20T16:17:42.627Z,9.20
2019-02-20T16:20:33.809Z,9.20
2019-02-20T16:23:02.410Z,9.20
2019-02-20T16:25:31.518Z,9.10
2019-02-20T16:28:00.131Z,9.10
2019-02-20T16:30:28.674Z,9.10
2019-02-20T16:32:58.091Z,9.10
2019-02-20T16:35:26.658Z,9.00
2019-02-20T16:37:55.197Z,9.00
2019-02-20T16:40:24.115Z,8.90
2019-02-20T16:42:52.665Z,9.00
2019-02-20T16:45:25.821Z,8.90
2019-02-20T16:47:54.902Z,8.90
2019-02-20T16:50:23.767Z,8.80
2019-02-20T16:52:53.203Z,8.80
2019-02-20T16:55:22.685Z,8.70
2019-02-20T16:57:56.813Z,8.70
2019-02-20T17:00:22.645Z,8.70
2019-02-20T17:02:51.739Z,8.70
2019-02-20T17:05:20.454Z,8.70
2019-02-20T17:07:49.224Z,8.60
2019-02-20T17:10:18.367Z,8.60
2019-02-20T17:12:47.975Z,8.50
2019-02-20T17:15:17.699Z,8.50
2019-02-20T17:17:47.283Z,8.50
2019-02-20T17:20:17.948Z,8.50
2019-02-20T17:22:47.117Z,8.40
2019-02-20T17:25:36.551Z,8.50
2019-02-20T17:28:06.055Z,8.40
2019-02-20T17:30:34.812Z,8.40
2019-02-20T17:33:03.391Z,8.30
2019-02-20T17:35:51.286Z,8.30
2019-02-20T17:38:19.922Z,8.30
2019-02-20T17:40:48.874Z,8.30
2019-02-20T17:43:17.494Z,8.20
2019-02-20T17:45:46.052Z,8.20
2019-02-20T17:48:14.632Z,8.20
2019-02-20T17:50:43.264Z,8.10
2019-02-20T17:53:11.898Z,8.10
2019-02-20T17:55:42.642Z,8.10
2019-02-20T17:58:15.230Z,8.00
2019-02-20T18:00:41.427Z,8.00
2019-02-20T18:03:10.068Z,8.00
2019-02-20T18:05:39.163Z,7.90
2019-02-20T18:08:07.756Z,7.90
2019-02-20T18:10:36.541Z,7.90
2019-02-20T18:13:05.148Z,7.90
2019-02-20T18:15:33.732Z,7.90
2019-02-20T18:18:03.202Z,7.90
2019-02-20T18:20:32.135Z,7.80
2019-02-20T18:23:00.731Z,7.80
2019-02-20T18:25:29.356Z,7.80
2019-02-20T18:27:59.633Z,7.70
2019-02-20T18:30:28.262Z,7.70
2019-02-20T18:32:57.031Z,7.60
2019-02-20T18:35:45.115Z,7.60
2019-02-20T18:38:13.765Z,7.60
2019-02-20T18:40:42.606Z,7.50
2019-02-20T18:43:11.230Z,7.50
2019-02-20T18:45:39.869Z,7.50
2019-02-20T18:48:08.486Z,7.50
2019-02-20T18:50:37.066Z,7.40
2019-02-20T18:53:05.614Z,7.40
2019-02-20T18:55:34.189Z,7.30
2019-02-20T18:58:02.806Z,7.20
2019-02-20T19:00:31.413Z,7.20
2019-02-20T19:03:00.123Z,7.00
2019-02-20T19:05:29.661Z,6.90
2019-02-20T19:07:58.220Z,6.90
2019-02-20T19:10:51.029Z,6.70
2019-02-20T19:17:23.247Z,6.60
2019-02-20T19:20:06.648Z,6.50
2019-02-20T19:23:30.853Z,6.40
2019-02-20T19:26:17.317Z,6.30
2019-02-20T19:29:07.097Z,6.20
2019-02-20T19:31:58.156Z,6.10
2019-02-20T19:34:58.150Z,6.10
2019-02-20T19:37:38.692Z,6.00
2019-02-20T19:40:25.442Z,5.90
2019-02-20T19:43:46.101Z,5.90
2019-02-20T19:46:45.135Z,5.90
2019-02-20T19:49:34.747Z,5.70
2019-02-20T19:52:12.463Z,5.60
2019-02-20T19:55:03.280Z,5.60
2019-02-20T19:57:46.395Z,5.50
2019-02-20T20:00:54.032Z,5.50
2019-02-20T20:03:48.468Z,5.50
2019-02-20T20:06:40.372Z,5.40
2019-02-20T20:09:32.655Z,5.40
2019-02-20T20:15:08.256Z,5.30
2019-02-20T20:18:05.729Z,5.20
2019-02-20T20:21:10.516Z,5.20
2019-02-20T20:23:48.224Z,5.20
2019-02-20T20:26:42.073Z,5.10
2019-02-20T20:29:47.997Z,5.10
2019-02-20T20:33:02.586Z,5.10
2019-02-20T20:36:07.625Z,5.10
2019-02-20T20:38:48.135Z,5.20
2019-02-20T20:41:55.555Z,5.20
2019-02-20T20:44:43.486Z,5.30
2019-02-20T20:47:36.466Z,5.40
2019-02-20T20:50:42.018Z,5.40
2019-02-20T20:53:13.639Z,5.50
2019-02-20T20:56:05.759Z,5.50
2019-02-20T20:59:17.699Z,5.60
2019-02-20T21:01:46.587Z,5.60
2019-02-20T21:04:37.842Z,5.60
2019-02-20T21:07:27.257Z,5.50
2019-02-20T21:10:10.862Z,5.50
2019-02-20T21:12:57.806Z,5.50
2019-02-20T21:15:47.235Z,5.50
2019-02-20T21:18:35.482Z,5.50
2019-02-20T21:21:07.103Z,5.50
2019-02-20T21:24:14.851Z,5.60
2019-02-20T21:27:04.349Z,5.60
2019-02-20T21:29:52.467Z,5.60
2019-02-20T21:32:47.796Z,5.60
2019-02-20T21:35:22.454Z,5.60
2019-02-20T21:38:06.076Z,5.60
2019-02-20T21:40:37.719Z,5.50
2019-02-20T21:43:30.119Z,5.50
2019-02-20T21:46:22.255Z,5.50
2019-02-20T21:48:56.819Z,5.50
2019-02-20T21:51:40.102Z,5.50
2019-02-20T21:54:27.845Z,5.50
2019-02-20T21:57:05.419Z,5.50
2019-02-20T21:59:59.866Z,5.60
2019-02-20T22:02:52.135Z,5.60
2019-02-20T22:05:41.558Z,5.70
2019-02-20T22:08:38.233Z,5.70
2019-02-20T22:11:16.140Z,5.70
2019-02-20T22:13:59.957Z,5.70
2019-02-20T22:16:42.014Z,5.70
2019-02-20T22:19:40.618Z,5.70
2019-02-20T22:22:09.908Z,5.70
2019-02-20T22:24:59.623Z,5.70
2019-02-20T22:27:42.591Z,5.60
2019-02-20T22:30:31.838Z,5.60
2019-02-20T22:33:06.330Z,5.60
2019-02-20T22:35:54.432Z,5.60
2019-02-20T22:38:24.093Z,5.60
2019-02-20T22:40:58.272Z,5.50
2019-02-20T22:44:00.813Z,5.50
2019-02-20T22:46:57.723Z,5.50
2019-02-20T22:49:49.023Z,5.40
2019-02-20T22:52:47.670Z,5.40
2019-02-20T22:55:32.178Z,5.40
2019-02-20T22:58:09.640Z,5.30
2019-02-20T23:01:00.359Z,5.30
2019-02-20T23:03:34.846Z,5.30
2019-02-20T23:06:27.259Z,5.30
2019-02-20T23:09:11.135Z,5.30
2019-02-20T23:12:03.301Z,5.30
2019-02-20T23:14:34.956Z,5.30
2019-02-20T23:17:03.482Z,5.30
2019-02-20T23:19:32.087Z,5.30
2019-02-20T23:22:00.589Z,5.30
2019-02-20T23:24:29.389Z,5.30
2019-02-20T23:26:58.286Z,5.20
2019-02-20T23:29:26.851Z,5.20
2019-02-20T23:31:55.402Z,5.30
2019-02-20T23:34:24.231Z,5.30
2019-02-20T23:36:53.132Z,5.20
2019-02-20T23:39:21.666Z,5.20
2019-02-20T23:41:50.210Z,5.20
2019-02-20T23:44:19.079Z,5.20
2019-02-20T23:46:47.966Z,5.20
2019-02-20T23:49:16.510Z,5.10
2019-02-20T23:51:45.075Z,5.10
2019-02-20T23:54:13.622Z,5.10
2019-02-20T23:56:42.163Z,5.10
2019-02-20T23:59:13.706Z,5.00
